Time;durP1;ratioP1;P1;durP2;ratioP2;P2;SDS_P1;SDS_P2;PMS_P1;PMS_P2;Temp;Humidity;BMP_temperature;BMP_pressure;BME280_temperature;BME280_humidity;BME280_pressure;Samples;Min_cycle;Max_cycle;Signal;HPM_P1;HPM_P2
2022/11/23 00:01:20;;;;;;;3.67;1.75;;;;;;;4.37;80.48;97759.66;5020069;28;20041;-55
2022/11/23 00:03:51;;;;;;;5.88;2.38;;;;;;;4.34;80.75;97759.69;5033061;28;20052;-55
2022/11/23 00:06:20;;;;;;;6.00;1.83;;;;;;;4.34;81.01;97757.13;5049767;28;20052;-54
2022/11/23 00:08:48;;;;;;;6.15;1.75;;;;;;;4.33;80.81;97763.13;5046492;28;20044;-55
2022/11/23 00:11:16;;;;;;;7.22;1.90;;;;;;;4.33;80.58;97754.59;5053956;28;20100;-55
2022/11/23 00:13:44;;;;;;;7.53;2.08;;;;;;;4.31;80.60;97757.19;5053903;28;20052;-50
2022/11/23 00:16:15;;;;;;;5.70;2.25;;;;;;;4.31;80.54;97754.63;5053316;28;20440;-54
2022/11/23 00:18:42;;;;;;;8.20;2.13;;;;;;;4.30;81.21;97758.06;5054223;28;20071;-55
2022/11/23 00:21:13;;;;;;;6.70;2.10;;;;;;;4.27;80.80;97758.09;5053143;28;20048;-54
2022/11/23 00:23:40;;;;;;;;;;;;;;;4.19;80.65;97754.78;5047538;28;20189;-55
2022/11/23 00:26:08;;;;;;;3.60;1.83;;;;;;;4.21;80.85;97750.47;5056306;28;20291;-54
2022/11/23 00:28:38;;;;;;;5.20;2.10;;;;;;;4.22;80.42;97747.91;5052028;28;20052;-54
2022/11/23 00:31:06;;;;;;;4.85;1.65;;;;;;;4.20;80.89;97746.22;5033016;28;20041;-56
2022/11/23 00:33:33;;;;;;;4.38;2.17;;;;;;;4.19;81.24;97737.69;5054766;28;20044;-54
2022/11/23 00:38:38;;;;;;;4.93;2.45;;;;;;;4.18;80.73;97743.69;5077812;27;20396;-53
2022/11/23 00:41:08;;;;;;;5.07;2.47;;;;;;;4.17;80.73;97736.03;5082024;28;20549;-56
2022/11/23 00:43:36;;;;;;;11.20;2.58;;;;;;;4.14;81.19;97733.50;5080317;28;20500;-54
2022/11/23 00:46:07;;;;;;;8.32;2.95;;;;;;;4.12;80.97;97733.50;5080686;27;20048;-52
2022/11/23 00:48:34;;;;;;;5.10;1.95;;;;;;;4.08;80.71;97727.59;5076505;28;20056;-51
2022/11/23 00:51:03;;;;;;;6.00;2.60;;;;;;;4.07;80.53;97725.91;5077732;28;20056;-56
2022/11/23 00:53:30;;;;;;;6.57;2.33;;;;;;;4.05;80.69;97734.50;5080942;28;20056;-54
2022/11/23 00:55:58;;;;;;;6.47;2.75;;;;;;;4.04;80.66;97733.63;5076960;28;20053;-55
2022/11/23 00:58:25;;;;;;;7.05;3.92;;;;;;;4.04;80.91;97736.19;5079006;28;20430;-52
2022/11/23 01:01:04;;;;;;;7.95;2.97;;;;;;;4.01;80.45;97731.09;5079637;28;20040;-50
2022/11/23 01:03:32;;;;;;;6.47;3.63;;;;;;;4.00;80.75;97729.41;5079017;28;20567;-53
2022/11/23 01:06:19;;;;;;;10.68;4.00;;;;;;;3.99;80.85;97727.75;5077708;28;20044;-54
2022/11/23 01:08:49;;;;;;;15.55;3.75;;;;;;;3.99;80.87;97718.31;5076402;28;20127;-54
2022/11/23 01:11:17;;;;;;;10.13;3.83;;;;;;;3.98;81.15;97720.91;5078759;28;20044;-56
2022/11/23 01:13:44;;;;;;;8.45;4.25;;;;;;;3.97;80.88;97721.78;5077770;28;20052;-55
2022/11/23 01:16:14;;;;;;;13.25;3.97;;;;;;;3.97;80.82;97719.22;5076006;28;20093;-52
2022/11/23 01:19:00;;;;;;;7.88;2.78;;;;;;;3.95;81.23;97716.66;5076834;28;20052;-56
2022/11/23 01:21:28;;;;;;;8.05;3.67;;;;;;;3.95;81.41;97713.28;5073494;28;20079;-51
2022/11/23 01:23:56;;;;;;;9.50;4.25;;;;;;;3.97;81.17;97714.09;5076220;28;20109;-52
2022/11/23 01:26:23;;;;;;;8.60;3.45;;;;;;;3.98;81.29;97710.66;5077267;27;20063;-50
2022/11/23 01:28:50;;;;;;;10.63;3.17;;;;;;;3.97;81.61;97698.72;5078680;28;20072;-56
2022/11/23 01:31:20;;;;;;;9.30;4.55;;;;;;;3.94;81.46;97703.88;5079535;28;21740;-52
2022/11/23 01:33:47;;;;;;;;;;;;;;;3.92;81.88;97695.38;5076477;28;20742;-50
2022/11/23 01:36:17;;;;;;;11.30;4.28;;;;;;;3.95;81.96;97690.22;5075130;28;20015;-55
2022/11/23 01:38:45;;;;;;;10.95;3.92;;;;;;;3.96;81.61;97681.66;5076845;28;20044;-52
2022/11/23 01:41:14;;;;;;;9.27;4.45;;;;;;;3.96;81.85;97676.53;5077700;28;20082;-50
2022/11/23 01:43:41;;;;;;;10.65;3.75;;;;;;;3.94;81.27;97662.91;5076764;28;20082;-56
2022/11/23 01:46:08;;;;;;;10.48;3.78;;;;;;;3.94;81.48;97658.63;5075772;28;20044;-56
2022/11/23 01:51:23;;;;;;;12.90;5.28;;;;;;;3.90;81.93;97651.00;5032612;27;20414;-54
2022/11/23 01:53:53;;;;;;;9.60;4.40;;;;;;;3.90;81.61;97651.88;5016906;28;20042;-54
2022/11/23 01:56:26;;;;;;;9.27;4.45;;;;;;;3.90;81.25;97651.00;5014293;28;20137;-55
2022/11/23 01:58:56;;;;;;;12.35;4.32;;;;;;;3.88;81.56;97653.59;5018663;28;20390;-53
2022/11/23 02:01:22;;;;;;;9.32;4.68;;;;;;;3.88;81.72;97653.59;5012844;28;20573;-52
2022/11/23 02:03:50;;;;;;;10.25;5.57;;;;;;;3.89;81.51;97654.44;5015805;28;20081;-55
2022/11/23 02:06:19;;;;;;;18.83;6.68;;;;;;;3.91;81.89;97643.31;5014478;28;20049;-53
2022/11/23 02:08:47;;;;;;;13.02;6.15;;;;;;;3.97;82.10;97647.50;5014093;28;20096;-55
2022/11/23 02:11:15;;;;;;;19.13;6.95;;;;;;;4.04;82.19;97632.88;5018463;28;20493;-55
2022/11/23 02:13:44;;;;;;;15.43;6.70;;;;;;;4.10;82.15;97633.66;5017978;28;20486;-55
2022/11/23 02:16:12;;;;;;;17.15;7.63;;;;;;;4.17;82.38;97629.25;5011395;28;20802;-56
2022/11/23 02:18:43;;;;;;;15.10;7.75;;;;;;;4.22;82.43;97631.75;5014685;28;20148;-55
2022/11/23 02:21:10;;;;;;;15.00;6.63;;;;;;;4.27;82.28;97637.66;5020102;28;20127;-56
2022/11/23 02:29:25;;;;;;;26.90;8.50;;;;;;;4.58;83.10;97618.34;5122111;27;20402;-55
2022/11/23 02:31:52;;;;;;;22.33;7.72;;;;;;;4.59;82.58;97615.75;5099294;28;20544;-56
2022/11/23 02:34:19;;;;;;;19.27;8.02;;;;;;;4.60;83.10;97614.88;5099695;28;20047;-53
2022/11/23 02:36:47;;;;;;;18.10;7.22;;;;;;;4.60;82.96;97603.78;5097868;28;20075;-53
2022/11/23 02:41:59;;;;;;;13.05;5.60;;;;;;;4.58;82.63;97606.38;5055929;27;20410;-56
2022/11/23 02:45:05;;;;;;;16.08;5.00;;;;;;;4.56;83.21;97604.72;5018258;28;20498;-55
2022/11/23 02:47:32;;;;;;;16.20;5.82;;;;;;;4.57;82.84;97598.69;5008175;28;20047;-55
2022/11/23 02:49:59;;;;;;;15.95;5.93;;;;;;;4.57;83.31;97594.44;5017977;28;20136;-54
2022/11/23 02:52:25;;;;;;;14.38;5.43;;;;;;;4.56;82.61;97597.84;5014579;28;20543;-55
2022/11/23 02:54:52;;;;;;;12.60;5.43;;;;;;;4.57;82.30;97591.00;5011677;28;20972;-55
2022/11/23 02:57:19;;;;;;;11.65;4.60;;;;;;;4.59;82.92;97590.09;5015937;28;20129;-56
2022/11/23 02:59:45;;;;;;;13.75;4.65;;;;;;;4.60;82.71;97591.78;5017347;28;20541;-54
2022/11/23 03:02:12;;;;;;;13.75;5.28;;;;;;;4.63;82.65;97596.03;5016580;28;20080;-55
2022/11/23 03:04:38;;;;;;;16.92;5.35;;;;;;;4.63;82.66;97591.75;5019039;28;20671;-54
2022/11/23 03:07:05;;;;;;;16.17;5.00;;;;;;;4.66;83.27;97590.00;5021981;28;20132;-54
2022/11/23 03:09:31;;;;;;;15.95;6.03;;;;;;;4.68;82.85;97575.41;5015615;28;20076;-55
2022/11/23 03:11:58;;;;;;;18.25;4.45;;;;;;;4.70;83.00;97581.38;5017764;28;20057;-55
2022/11/23 03:14:25;;;;;;;12.45;4.25;;;;;;;4.69;82.94;97585.66;5014427;28;20107;-54
2022/11/23 03:16:52;;;;;;;9.50;4.00;;;;;;;4.68;83.32;97577.97;5020391;28;20073;-51
2022/11/23 03:19:18;;;;;;;9.98;4.22;;;;;;;4.68;82.65;97568.59;5014816;28;20131;-56
2022/11/23 03:21:45;;;;;;;13.50;3.65;;;;;;;4.67;82.66;97566.91;5014789;28;20045;-54
2022/11/23 03:24:11;;;;;;;10.07;4.05;;;;;;;4.67;83.26;97566.03;5014322;28;20135;-54
2022/11/23 03:26:38;;;;;;;11.35;3.95;;;;;;;4.68;83.48;97562.59;5015943;28;20038;-54
2022/11/23 03:29:05;;;;;;;16.60;5.07;;;;;;;4.71;83.45;97567.69;5017804;28;20049;-54
2022/11/23 03:31:31;;;;;;;12.30;4.57;;;;;;;4.73;83.84;97571.06;5013855;28;20069;-53
2022/11/23 03:33:58;;;;;;;11.95;4.55;;;;;;;4.73;83.24;97571.06;5017141;28;20045;-55
2022/11/23 03:36:24;;;;;;;11.50;4.55;;;;;;;4.74;83.06;97557.38;5016053;28;20073;-56
2022/11/23 03:38:51;;;;;;;8.65;3.53;;;;;;;4.74;83.65;97557.38;5019478;28;20088;-55
2022/11/23 03:41:17;;;;;;;11.85;3.78;;;;;;;4.75;84.45;97548.78;5035985;28;20511;-55
2022/11/23 03:43:44;;;;;;;13.10;4.22;;;;;;;4.77;84.07;97541.94;5035391;28;20114;-54
2022/11/23 03:46:11;;;;;;;9.10;3.13;;;;;;;4.80;83.61;97539.28;5034366;28;20145;-53
2022/11/23 03:48:37;;;;;;;8.52;3.83;;;;;;;4.81;84.01;97533.28;5032391;28;20080;-54
2022/11/23 03:51:04;;;;;;;12.07;3.50;;;;;;;4.79;84.03;97529.06;5037552;28;20049;-57
2022/11/23 03:53:30;;;;;;;10.57;3.15;;;;;;;4.81;84.34;97525.59;5019820;28;20077;-55
2022/11/23 03:55:57;;;;;;;9.02;4.00;;;;;;;4.79;84.17;97519.66;5022542;28;20854;-54
2022/11/23 03:58:24;;;;;;;8.23;2.67;;;;;;;4.79;84.16;97524.78;5020918;28;20140;-54
2022/11/23 04:00:50;;;;;;;13.13;3.78;;;;;;;4.75;83.88;97524.00;5020046;28;20076;-56
2022/11/23 04:03:17;;;;;;;14.25;3.05;;;;;;;4.73;84.17;97514.66;5020617;28;20053;-56
2022/11/23 04:05:43;;;;;;;8.63;3.10;;;;;;;4.73;83.68;97514.66;5024535;28;20188;-57
2022/11/23 04:08:10;;;;;;;7.90;3.42;;;;;;;4.69;84.41;97503.59;5020306;28;20659;-53
2022/11/23 04:10:37;;;;;;;6.57;2.55;;;;;;;4.69;84.34;97508.72;5023899;28;20050;-57
2022/11/23 04:13:03;;;;;;;9.90;2.70;;;;;;;4.70;84.67;97496.75;5018890;28;20087;-56
2022/11/23 04:15:30;;;;;;;9.38;3.05;;;;;;;4.66;84.82;97493.41;5022663;28;20041;-54
2022/11/23 04:17:57;;;;;;;10.68;3.28;;;;;;;4.66;85.42;97492.56;5020694;28;20041;-56
2022/11/23 04:20:23;;;;;;;9.80;2.85;;;;;;;4.69;85.15;97489.94;5024027;28;20073;-56
2022/11/23 04:22:50;;;;;;;9.05;3.33;;;;;;;4.70;85.35;97481.38;5022646;28;20045;-53
2022/11/23 04:25:16;;;;;;;9.95;2.70;;;;;;;4.71;85.84;97483.06;5022907;28;20073;-54
2022/11/23 04:27:44;;;;;;;7.95;2.72;;;;;;;4.67;85.74;97478.88;5026664;28;20106;-56
2022/11/23 04:30:11;;;;;;;6.18;2.60;;;;;;;4.72;86.05;97472.78;5022077;28;20096;-55
2022/11/23 04:32:37;;;;;;;13.10;3.25;;;;;;;4.76;85.45;97460.72;5026935;28;20080;-53
2022/11/23 04:35:04;;;;;;;6.35;2.55;;;;;;;4.70;85.60;97448.03;5040102;28;20120;-57
2022/11/23 04:37:31;;;;;;;10.18;2.38;;;;;;;4.67;86.19;97458.34;5034889;28;20440;-56
2022/11/23 04:39:57;;;;;;;6.72;2.70;;;;;;;4.68;85.91;97449.78;5039818;28;20106;-57
2022/11/23 04:42:24;;;;;;;6.45;2.65;;;;;;;4.67;85.25;97437.84;5038962;28;20057;-57
2022/11/23 04:44:51;;;;;;;4.68;2.25;;;;;;;4.62;86.05;97425.97;5037166;28;20087;-57
2022/11/23 04:47:17;;;;;;;5.55;1.52;;;;;;;4.60;85.68;97422.56;5036746;28;20076;-57
2022/11/23 04:49:44;;;;;;;6.55;1.83;;;;;;;4.58;84.81;97419.22;5040483;28;20076;-57
2022/11/23 04:52:11;;;;;;;7.80;2.17;;;;;;;4.61;85.04;97419.16;5036920;28;20131;-55
2022/11/23 04:54:37;;;;;;;6.57;1.63;;;;;;;4.58;85.80;97410.66;5039063;28;20582;-56
2022/11/23 04:57:04;;;;;;;7.05;2.22;;;;;;;4.51;85.24;97397.16;5034327;28;20127;-53
2022/11/23 04:59:30;;;;;;;3.92;2.00;;;;;;;4.50;85.88;97387.78;5031656;28;20057;-55
2022/11/23 05:01:58;;;;;;;5.63;1.15;;;;;;;4.54;85.33;97391.97;5038585;28;20143;-54
2022/11/23 05:04:24;;;;;;;7.25;2.17;;;;;;;4.52;84.96;97393.69;5034290;28;20041;-55
2022/11/23 05:06:51;;;;;;;5.68;1.77;;;;;;;4.52;85.43;97393.69;5045000;28;20106;-53
2022/11/23 05:09:18;;;;;;;6.10;1.50;;;;;;;4.55;85.63;97387.66;5043634;28;20062;-55
2022/11/23 05:11:44;;;;;;;7.50;1.73;;;;;;;4.53;85.61;97385.16;5043162;28;20049;-57
2022/11/23 05:14:11;;;;;;;5.95;1.52;;;;;;;4.59;85.07;97386.75;5036943;28;20122;-53
2022/11/23 05:16:37;;;;;;;5.50;1.70;;;;;;;4.59;85.14;97395.25;5038481;28;20071;-53
2022/11/23 05:19:04;;;;;;;3.05;1.05;;;;;;;4.56;85.20;97392.75;5038571;28;20087;-54
2022/11/23 05:21:30;;;;;;;6.97;1.42;;;;;;;4.52;85.22;97393.69;5037083;28;20459;-55
2022/11/23 05:23:57;;;;;;;5.50;1.70;;;;;;;4.54;85.24;97385.97;5037392;28;20045;-57
2022/11/23 05:26:24;;;;;;;7.40;1.40;;;;;;;4.46;84.94;97389.53;5040158;28;20186;-57
2022/11/23 05:28:50;;;;;;;5.03;1.33;;;;;;;4.46;84.48;97388.72;5038482;28;20437;-57
2022/11/23 05:31:17;;;;;;;10.30;2.03;;;;;;;4.53;85.18;97377.47;5036511;28;20068;-55
2022/11/23 05:33:44;;;;;;;2.63;0.75;;;;;;;4.48;84.74;97376.69;5038342;28;20206;-55
2022/11/23 05:36:12;;;;;;;3.17;1.17;;;;;;;4.47;85.22;97369.88;5038489;28;20075;-56
2022/11/23 05:38:39;;;;;;;2.63;0.85;;;;;;;4.49;85.06;97373.25;5036626;28;20055;-53
2022/11/23 05:41:06;;;;;;;7.50;1.25;;;;;;;4.56;84.64;97359.44;5038511;28;20045;-55
2022/11/23 05:43:33;;;;;;;3.90;0.95;;;;;;;4.54;85.07;97330.44;5039141;28;20051;-55
2022/11/23 05:46:01;;;;;;;3.40;1.13;;;;;;;4.58;85.45;97326.06;5040092;28;20136;-56
2022/11/23 05:48:27;;;;;;;5.50;0.75;;;;;;;4.60;85.02;97314.91;5033907;28;20045;-57
2022/11/23 05:50:54;;;;;;;3.38;0.80;;;;;;;4.62;85.37;97318.28;5042994;28;20053;-54
2022/11/23 05:53:20;;;;;;;2.53;1.00;;;;;;;4.66;85.31;97324.16;5040264;28;20107;-54
2022/11/23 05:55:47;;;;;;;2.95;1.05;;;;;;;4.74;84.73;97317.19;5037374;28;20072;-57
2022/11/23 05:58:14;;;;;;;2.65;0.90;;;;;;;4.77;85.53;97321.38;5036671;28;20409;-57
2022/11/23 06:00:40;;;;;;;3.63;0.50;;;;;;;4.85;85.14;97311.78;5034223;28;20045;-56
2022/11/23 06:03:07;;;;;;;3.75;1.27;;;;;;;4.89;85.26;97305.69;5039813;28;20037;-57
2022/11/23 06:05:34;;;;;;;2.22;0.80;;;;;;;4.93;85.01;97300.50;5043863;28;20072;-54
2022/11/23 06:08:00;;;;;;;10.20;1.25;;;;;;;4.99;85.06;97295.19;5040211;28;20137;-55
2022/11/23 06:10:27;;;;;;;2.05;0.70;;;;;;;4.96;85.87;97290.16;5035453;28;20044;-55
2022/11/23 06:12:54;;;;;;;4.07;1.50;;;;;;;4.98;84.89;97283.25;5032513;28;20080;-54
2022/11/23 06:15:20;;;;;;;2.80;0.75;;;;;;;4.97;84.67;97276.47;5038450;28;20076;-56
2022/11/23 06:17:47;;;;;;;4.75;1.35;;;;;;;5.04;84.61;97257.47;5037768;28;20045;-56
2022/11/23 06:20:14;;;;;;;3.85;1.02;;;;;;;5.11;84.82;97258.16;5034132;28;20079;-52
2022/11/23 06:22:40;;;;;;;2.40;0.93;;;;;;;5.12;84.68;97255.53;5036935;28;20049;-58
2022/11/23 06:25:07;;;;;;;5.47;1.35;;;;;;;5.10;85.19;97241.91;5036396;28;20180;-58
2022/11/23 06:27:34;;;;;;;5.35;1.13;;;;;;;5.14;84.61;97237.56;5040040;28;20080;-54
2022/11/23 06:30:00;;;;;;;3.15;0.60;;;;;;;5.17;84.82;97226.34;5039720;28;20068;-57
2022/11/23 06:32:27;;;;;;;3.42;1.42;;;;;;;5.24;85.24;97207.34;5039287;28;20128;-58
2022/11/23 06:34:53;;;;;;;3.40;1.13;;;;;;;5.21;85.75;97202.28;5040363;28;20396;-56
2022/11/23 06:37:26;;;;;;;1.50;0.85;;;;;;;5.22;85.21;97214.22;5033893;28;20404;-58
2022/11/23 06:39:53;;;;;;;3.17;1.08;;;;;;;5.27;84.96;97207.28;5036594;28;20079;-55
2022/11/23 06:42:19;;;;;;;1.83;1.17;;;;;;;5.27;85.41;97205.53;5042057;28;20516;-55
2022/11/23 06:45:05;;;;;;;1.58;0.43;;;;;;;5.27;85.81;97209.84;5041598;28;20048;-56
2022/11/23 06:47:32;;;;;;;1.85;0.68;;;;;;;5.33;84.82;97204.53;5040012;28;20134;-55
2022/11/23 06:49:59;;;;;;;5.55;1.73;;;;;;;5.34;86.04;97207.94;5037981;28;20094;-54
2022/11/23 06:52:25;;;;;;;3.80;1.00;;;;;;;5.39;85.28;97194.09;5039111;28;20056;-56
2022/11/23 06:54:52;;;;;;;4.68;1.10;;;;;;;5.43;86.26;97196.59;5037416;28;20467;-57
2022/11/23 06:57:19;;;;;;;3.08;1.42;;;;;;;5.45;86.50;97184.53;5041173;28;20045;-56
2022/11/23 06:59:45;;;;;;;5.47;0.85;;;;;;;5.46;85.53;97186.22;5039095;28;20072;-57
2022/11/23 07:02:13;;;;;;;3.08;0.73;;;;;;;5.52;86.40;97180.91;5040149;28;20072;-58
2022/11/23 07:04:39;;;;;;;3.78;1.45;;;;;;;5.55;86.60;97175.69;5039831;28;20617;-57
2022/11/23 07:07:07;;;;;;;4.93;0.88;;;;;;;5.52;86.41;97170.66;5043319;28;20095;-60
2022/11/23 07:09:34;;;;;;;2.08;0.68;;;;;;;5.54;86.97;97168.84;5044073;28;20132;-60
2022/11/23 07:12:01;;;;;;;4.50;1.35;;;;;;;5.60;87.66;97172.97;5042016;28;20571;-57
2022/11/23 07:14:28;;;;;;;10.20;0.68;;;;;;;5.60;87.13;97162.69;5048036;28;20076;-58
2022/11/23 07:16:54;;;;;;;8.95;1.52;;;;;;;5.57;87.34;97158.50;5045816;28;20128;-59
2022/11/23 07:19:21;;;;;;;5.05;0.68;;;;;;;5.62;87.07;97151.53;5035457;28;20120;-59
2022/11/23 07:21:47;;;;;;;17.15;1.92;;;;;;;5.59;88.08;97143.06;5039129;28;20115;-59
2022/11/23 07:24:14;;;;;;;2.00;1.25;;;;;;;5.60;87.82;97137.03;5044473;28;20044;-59
2022/11/23 07:26:40;;;;;;;4.43;1.45;;;;;;;5.61;88.13;97144.69;5039043;28;20124;-56
2022/11/23 07:29:07;;;;;;;3.00;1.27;;;;;;;5.64;88.77;97138.66;5047028;28;20152;-60
2022/11/23 07:31:34;;;;;;;3.42;0.95;;;;;;;5.64;88.82;97124.06;5048138;28;20045;-59
2022/11/23 07:34:00;;;;;;;5.82;1.20;;;;;;;5.64;88.46;97108.66;5043893;28;20906;-60
2022/11/23 07:36:27;;;;;;;6.72;2.05;;;;;;;5.71;88.66;97114.44;5045261;28;20072;-58
2022/11/23 07:38:54;;;;;;;6.35;1.30;;;;;;;5.70;89.22;97102.50;5047754;28;20051;-59
2022/11/23 07:41:21;;;;;;;9.23;1.30;;;;;;;5.71;89.70;97108.47;5043554;28;20110;-59
2022/11/23 07:43:47;;;;;;;5.97;1.40;;;;;;;5.75;89.47;97105.75;5045885;28;20200;-59
2022/11/23 07:46:14;;;;;;;4.72;1.67;;;;;;;5.82;88.68;97096.16;5039098;28;20467;-58
2022/11/23 07:48:40;;;;;;;3.45;1.08;;;;;;;5.81;89.10;97089.31;5035601;28;20051;-57
2022/11/23 07:51:07;;;;;;;6.30;1.77;;;;;;;5.83;89.14;97087.53;5044664;28;20045;-58
2022/11/23 07:53:35;;;;;;;6.00;1.52;;;;;;;5.83;89.89;97092.69;5039887;28;20171;-58
2022/11/23 07:56:02;;;;;;;5.55;2.13;;;;;;;5.84;90.00;97063.53;5038175;28;20061;-60
2022/11/23 07:58:31;;;;;;;7.03;1.77;;;;;;;5.84;89.12;97071.25;5037727;28;20132;-58
2022/11/23 08:00:58;;;;;;;3.30;1.80;;;;;;;5.82;89.87;97062.75;5034942;28;20052;-59
2022/11/23 08:03:25;;;;;;;6.47;1.55;;;;;;;5.89;90.18;97069.38;5035026;28;20498;-58
2022/11/23 08:05:54;;;;;;;5.70;2.33;;;;;;;5.89;89.60;97071.94;5041585;28;20067;-58
2022/11/23 08:08:21;;;;;;;9.52;1.70;;;;;;;5.95;89.69;97058.06;5042441;28;20171;-57
2022/11/23 08:10:47;;;;;;;4.25;1.20;;;;;;;5.97;89.74;97058.00;5038475;28;20063;-57
2022/11/23 08:13:20;;;;;;;6.63;1.98;;;;;;;6.05;89.61;97050.94;5035927;28;20500;-59
2022/11/23 08:15:47;;;;;;;3.13;1.13;;;;;;;6.09;90.38;97062.78;5038243;28;20555;-58
2022/11/23 08:18:20;;;;;;;9.82;1.75;;;;;;;6.10;90.43;97059.31;5035977;28;20041;-59
2022/11/23 08:20:46;;;;;;;5.15;1.67;;;;;;;6.11;90.83;97050.72;5039439;28;20060;-59
2022/11/23 08:23:13;;;;;;;6.72;1.58;;;;;;;6.16;90.52;97048.00;5038706;28;20080;-60
2022/11/23 08:25:40;;;;;;;2.95;1.38;;;;;;;6.22;89.30;97057.25;5040038;28;20052;-60
2022/11/23 08:28:06;;;;;;;5.72;1.77;;;;;;;6.24;90.35;97045.16;5043775;28;20045;-59
2022/11/23 08:30:34;;;;;;;5.60;1.27;;;;;;;6.30;91.00;97042.41;5042532;28;20048;-59
2022/11/23 08:33:04;;;;;;;7.32;1.23;;;;;;;6.29;89.46;97033.00;5041307;28;20054;-60
2022/11/23 08:35:33;;;;;;;4.53;1.42;;;;;;;6.39;88.84;97044.66;5044921;28;20095;-59
2022/11/23 08:37:59;;;;;;;5.50;1.42;;;;;;;6.41;89.45;97042.03;5040735;28;20624;-60
2022/11/23 08:40:26;;;;;;;3.03;1.25;;;;;;;6.47;90.17;97035.81;5035590;28;20080;-58
2022/11/23 08:42:53;;;;;;;1.98;1.10;;;;;;;6.47;90.25;97025.53;5037739;28;20049;-58
2022/11/23 08:45:20;;;;;;;5.93;1.58;;;;;;;6.52;89.14;97023.69;5041821;28;20102;-58
2022/11/23 08:47:47;;;;;;;3.08;1.17;;;;;;;6.53;90.99;97015.06;5044754;28;20090;-59
2022/11/23 08:50:14;;;;;;;2.38;0.88;;;;;;;6.58;90.73;97008.00;5042200;28;20076;-59
2022/11/23 08:52:41;;;;;;;2.40;0.80;;;;;;;6.67;91.07;97017.97;5047000;28;20041;-59
2022/11/23 08:55:08;;;;;;;4.57;1.50;;;;;;;6.73;90.00;97006.63;5040074;28;20048;-57
2022/11/23 08:57:35;;;;;;;7.53;1.23;;;;;;;6.81;90.97;97009.78;5042656;28;20076;-58
2022/11/23 09:00:03;;;;;;;1.27;0.75;;;;;;;6.91;91.13;97014.56;5038951;28;20500;-59
2022/11/23 09:02:30;;;;;;;1.73;0.90;;;;;;;7.02;90.52;97016.72;5035185;28;20129;-57
2022/11/23 09:04:56;;;;;;;1.75;1.02;;;;;;;7.13;91.11;97024.06;5040491;28;20501;-58
2022/11/23 09:07:23;;;;;;;3.33;0.95;;;;;;;7.19;90.91;97027.25;5045580;28;20084;-59
2022/11/23 09:09:50;;;;;;;5.50;1.00;;;;;;;7.30;90.92;97039.69;5046669;28;20045;-59
2022/11/23 09:12:16;;;;;;;2.78;0.77;;;;;;;7.39;90.67;97038.53;5040906;28;20140;-58
2022/11/23 09:14:43;;;;;;;2.90;0.50;;;;;;;7.45;89.35;97030.56;5041948;28;20045;-54
2022/11/23 09:17:09;;;;;;;2.90;0.80;;;;;;;7.52;90.57;97022.59;5045137;28;20140;-58
2022/11/23 09:19:36;;;;;;;1.50;0.90;;;;;;;7.59;90.58;97031.75;5042137;28;20041;-55
2022/11/23 09:22:02;;;;;;;2.03;0.55;;;;;;;7.67;90.00;97032.28;5042474;28;20455;-58
2022/11/23 09:24:29;;;;;;;4.22;1.00;;;;;;;7.74;89.12;97044.94;5036122;28;20144;-56
2022/11/23 09:26:57;;;;;;;3.45;0.77;;;;;;;7.78;88.97;97036.19;5038192;28;20068;-59
2022/11/23 09:29:24;;;;;;;1.52;1.00;;;;;;;7.89;89.36;97053.78;5044821;28;20455;-58
2022/11/23 09:31:51;;;;;;;1.05;0.82;;;;;;;7.95;88.85;97063.84;5043115;28;20048;-55
2022/11/23 09:34:18;;;;;;;1.98;0.90;;;;;;;8.01;88.87;97068.78;5038339;28;20045;-56
2022/11/23 09:36:45;;;;;;;1.27;0.55;;;;;;;8.06;88.86;97076.31;5041901;28;20045;-57
2022/11/23 09:39:11;;;;;;;2.38;1.27;;;;;;;8.18;88.53;97075.78;5040970;28;20134;-56
2022/11/23 09:42:18;;;;;;;1.88;1.02;;;;;;;8.27;88.49;97084.09;5043047;28;20053;-57
2022/11/23 09:53:04;;;;;;;2.53;1.63;;;;;;;8.69;87.43;97115.91;5066478;28;20402;-60
2022/11/23 09:55:38;;;;;;;16.27;4.25;;;;;;;8.73;87.19;97123.47;5011086;28;20679;-62
2022/11/23 09:58:05;;;;;;;10.05;2.67;;;;;;;8.81;87.08;97135.22;5028535;28;20424;-60
2022/11/23 10:00:39;;;;;;;6.88;2.15;;;;;;;8.87;86.92;97140.09;5037203;28;20091;-60
2022/11/23 10:03:14;;;;;;;8.15;2.05;;;;;;;8.92;87.32;97143.31;5032623;28;20143;-60
2022/11/23 10:05:48;;;;;;;8.90;2.30;;;;;;;9.00;86.84;97143.84;5036108;28;20537;-60
2022/11/23 10:13:44;;;;;;;6.70;2.25;;;;;;;9.82;85.64;97179.84;5058662;28;20391;-60
2022/11/23 10:19:18;;;;;;;7.82;2.10;;;;;;;9.82;85.77;97194.53;5028226;28;20778;-60
2022/11/23 10:24:35;;;;;;;10.70;4.53;;;;;;;10.06;84.99;97196.91;5038980;27;20403;-60
2022/11/23 10:27:10;;;;;;;5.32;3.15;;;;;;;10.00;85.08;97198.84;5018262;28;20417;-60
2022/11/23 10:29:37;;;;;;;3.15;1.48;;;;;;;10.06;85.24;97210.66;5021825;28;20042;-60
2022/11/23 10:32:12;;;;;;;2.67;1.13;;;;;;;10.14;84.33;97210.31;5019532;28;20136;-60
2022/11/23 10:37:39;;;;;;;7.50;2.65;;;;;;;10.18;84.69;97232.53;5002556;27;20422;-60
2022/11/23 10:40:26;;;;;;;2.72;1.20;;;;;;;10.24;84.44;97237.41;4998930;28;20108;-60
2022/11/23 10:42:56;;;;;;;5.32;2.63;;;;;;;10.32;85.24;97233.63;4997103;28;20057;-60
2022/11/23 10:45:26;;;;;;;8.27;2.22;;;;;;;10.39;84.72;97245.38;4998720;28;20217;-60
2022/11/23 10:47:57;;;;;;;3.13;0.73;;;;;;;10.44;84.36;97258.94;5000571;28;20128;-60
2022/11/23 10:50:28;;;;;;;1.95;0.50;;;;;;;10.46;84.42;97262.31;5000570;28;20054;-60
2022/11/23 10:53:00;;;;;;;3.85;2.95;;;;;;;10.52;83.92;97267.22;4989061;28;20108;-60
2022/11/23 10:55:30;;;;;;;3.53;0.82;;;;;;;10.58;83.04;97266.09;4982553;28;20466;-60
2022/11/23 10:57:57;;;;;;;4.93;0.50;;;;;;;10.61;83.08;97272.88;4981975;28;20078;-60
2022/11/23 11:00:26;;;;;;;2.67;1.17;;;;;;;10.60;82.30;97263.44;4996574;28;20466;-60
2022/11/23 11:02:57;;;;;;;5.82;0.90;;;;;;;10.60;82.82;97274.59;4999913;28;20065;-60
2022/11/23 11:08:12;;;;;;;3.58;0.80;;;;;;;10.65;83.10;97282.16;5038330;27;20408;-60
2022/11/23 11:10:48;;;;;;;4.85;1.27;;;;;;;10.69;82.70;97283.69;4997663;28;20042;-60
2022/11/23 11:13:40;;;;;;;7.88;1.50;;;;;;;10.71;82.73;97287.03;4996946;28;20081;-60
2022/11/23 11:16:30;;;;;;;7.05;1.60;;;;;;;10.68;82.10;97289.78;4997485;28;20070;-60
2022/11/23 11:18:58;;;;;;;10.73;1.38;;;;;;;10.72;83.01;97287.88;5002002;28;20465;-60
2022/11/23 11:24:05;;;;;;;8.50;3.45;;;;;;;10.73;82.49;97308.50;5039439;28;20903;-60
2022/11/23 11:26:34;;;;;;;7.45;3.05;;;;;;;10.79;81.83;97304.78;5002039;28;20058;-60
2022/11/23 11:29:05;;;;;;;8.20;2.25;;;;;;;10.90;81.09;97312.03;5002502;28;20053;-59
2022/11/23 11:36:59;;;;;;;7.07;2.03;;;;;;;10.78;81.40;97329.84;5059349;28;20396;-59
2022/11/23 11:39:51;;;;;;;16.17;2.38;;;;;;;10.70;80.81;97326.78;5058226;28;20065;-60
2022/11/23 11:42:25;;;;;;;13.82;2.58;;;;;;;10.70;80.84;97331.94;5060824;28;20560;-60
2022/11/23 11:44:55;;;;;;;5.38;1.15;;;;;;;10.69;80.06;97330.28;5058184;28;20044;-60
2022/11/23 11:47:27;;;;;;;;;;;;;;;10.60;80.89;97325.53;5053348;28;20600;-59
2022/11/23 11:49:57;;;;;;;10.43;2.03;;;;;;;10.73;80.04;97333.56;5060488;28;19928;-59
2022/11/23 11:52:32;;;;;;;16.95;3.45;;;;;;;10.75;80.70;97336.91;5061037;28;20040;-60
2022/11/23 11:57:48;;;;;;;15.68;3.50;;;;;;;10.70;79.89;97337.13;5061312;27;20393;-60
2022/11/23 12:00:18;;;;;;;15.40;3.92;;;;;;;10.66;79.61;97345.94;5023693;28;20049;-59
2022/11/23 12:06:05;;;;;;;10.38;2.42;;;;;;;10.61;79.75;97364.28;5044618;27;20398;-60
2022/11/23 12:08:42;;;;;;;6.80;1.83;;;;;;;10.58;79.21;97368.75;5021558;28;20049;-60
2022/11/23 12:11:10;;;;;;;;;;;;;;;10.42;78.13;97369.44;5022137;28;20128;-60
2022/11/23 12:13:41;;;;;;;7.60;1.85;;;;;;;10.51;78.24;97373.38;5021451;28;19968;-60
2022/11/23 12:35:43;;;;;;;20.52;6.03;;;;;;;10.41;77.07;97391.06;5060345;27;20395;-59
2022/11/23 12:44:34;;;;;;;9.20;3.47;;;;;;;10.40;77.15;97410.03;5095860;27;20397;-59
2022/11/23 12:47:26;;;;;;;9.23;2.33;;;;;;;10.39;77.19;97416.13;5056877;28;20529;-59
2022/11/23 12:50:01;;;;;;;5.30;1.90;;;;;;;10.45;77.29;97436.59;5046687;28;20052;-59
2022/11/23 12:58:21;;;;;;;7.85;1.30;;;;;;;10.42;76.57;97454.81;5029774;28;20413;-60
2022/11/23 13:00:55;;;;;;;5.53;1.38;;;;;;;10.42;76.75;97462.59;5020412;28;20045;-59
2022/11/23 13:04:01;;;;;;;8.52;3.60;;;;;;;10.33;76.16;97455.25;5021827;28;20096;-59
2022/11/23 13:12:22;;;;;;;7.50;2.30;;;;;;;10.22;76.26;97458.25;5042417;28;21032;-59
2022/11/23 13:23:00;;;;;;;8.50;1.23;;;;;;;10.30;76.23;97458.78;5101562;27;20402;-58
2022/11/23 13:25:28;;;;;;;12.70;2.00;;;;;;;10.21;76.36;97460.03;5056814;28;20435;-59